createdAt,value
2023-06-29T00:02:34.491Z,100066.59
2023-06-29T00:05:58.942Z,100066.25
2023-06-29T00:09:23.127Z,100066.50
2023-06-29T00:12:46.081Z,100062.41
2023-06-29T00:16:08.681Z,100059.78
2023-06-29T00:19:32.069Z,100066.13
2023-06-29T00:22:56.448Z,100059.44
2023-06-29T00:26:19.665Z,100052.75
2023-06-29T00:29:43.948Z,100048.78
2023-06-29T00:33:06.859Z,100056.81
2023-06-29T00:36:30.098Z,100054.56
2023-06-29T00:39:54.776Z,100053.06
2023-06-29T00:43:18.652Z,100063.78
2023-06-29T00:46:42.029Z,100058.84
2023-06-29T00:50:05.897Z,100061.50
2023-06-29T00:53:28.650Z,100047.13
2023-06-29T00:56:52.796Z,100044.00
2023-06-29T01:00:17.239Z,100063.53
2023-06-29T01:03:41.997Z,100061.28
2023-06-29T01:07:10.466Z,100065.09
2023-06-29T01:10:36.348Z,100074.47
2023-06-29T01:14:02.499Z,100071.94
2023-06-29T01:17:28.816Z,100072.31
2023-06-29T01:20:52.407Z,100072.66
2023-06-29T01:24:17.807Z,100082.59
2023-06-29T01:27:44.980Z,100073.13
2023-06-29T01:31:08.137Z,100076.72
2023-06-29T01:34:33.054Z,100080.56
2023-06-29T01:38:01.004Z,100079.25
2023-06-29T01:41:26.040Z,100068.47
2023-06-29T01:44:51.023Z,100071.44
2023-06-29T01:48:14.696Z,100066.78
2023-06-29T01:51:37.652Z,100064.88
2023-06-29T01:55:00.641Z,100052.50
2023-06-29T01:58:23.479Z,100053.47
2023-06-29T02:01:48.051Z,100064.38
2023-06-29T02:05:10.939Z,100066.41
2023-06-29T02:08:33.983Z,100075.66
2023-06-29T02:11:56.838Z,100078.91
2023-06-29T02:15:19.700Z,100067.59
2023-06-29T02:18:43.694Z,100070.75
2023-06-29T02:22:06.635Z,100057.22
2023-06-29T02:25:30.021Z,100070.50
2023-06-29T02:28:53.515Z,100058.16
2023-06-29T02:32:16.140Z,100070.50
2023-06-29T02:35:40.614Z,100066.66
2023-06-29T02:39:03.376Z,100062.94
2023-06-29T02:42:26.438Z,100073.50
2023-06-29T02:45:49.084Z,100075.06
2023-06-29T02:49:13.589Z,100079.34
2023-06-29T02:52:37.467Z,100075.75
2023-06-29T02:56:00.219Z,100068.69
2023-06-29T02:59:23.893Z,100070.25
2023-06-29T03:02:46.764Z,100057.28
2023-06-29T03:06:09.914Z,100070.50
2023-06-29T03:09:34.502Z,100076.34
2023-06-29T03:12:57.459Z,100078.41
2023-06-29T03:16:20.546Z,100070.69
2023-06-29T03:19:43.590Z,100069.91
2023-06-29T03:23:06.752Z,100063.06
2023-06-29T03:26:31.247Z,100054.63
2023-06-29T03:29:55.745Z,100063.88
2023-06-29T03:33:18.605Z,100056.06
2023-06-29T03:36:41.666Z,100058.44
2023-06-29T03:40:04.417Z,100040.38
2023-06-29T03:43:28.818Z,100051.97
2023-06-29T03:46:51.666Z,100045.41
2023-06-29T03:50:14.719Z,100050.16
2023-06-29T03:53:37.584Z,100041.56
2023-06-29T03:57:00.851Z,100049.06
2023-06-29T04:00:25.040Z,100045.25
2023-06-29T04:03:48.539Z,100043.03
2023-06-29T04:07:11.497Z,100049.94
2023-06-29T04:10:34.890Z,100055.91
2023-06-29T04:13:57.996Z,100057.56
2023-06-29T04:17:22.760Z,100042.34
2023-06-29T04:20:45.442Z,100045.53
2023-06-29T04:24:09.124Z,100045.81
2023-06-29T04:27:35.758Z,100053.19
2023-06-29T04:30:59.027Z,100041.50
2023-06-29T04:34:23.440Z,100049.53
2023-06-29T04:37:46.385Z,100055.13
2023-06-29T04:41:09.035Z,100059.06
2023-06-29T04:44:33.824Z,100044.97
2023-06-29T04:47:58.177Z,100045.84
2023-06-29T04:51:23.047Z,100052.63
2023-06-29T04:54:45.983Z,100050.06
2023-06-29T04:58:09.085Z,100054.09
2023-06-29T05:01:32.167Z,100053.47
2023-06-29T05:04:55.095Z,100060.50
2023-06-29T05:08:19.258Z,100050.31
2023-06-29T05:11:42.523Z,100035.16
2023-06-29T05:15:05.803Z,100054.84
2023-06-29T05:18:28.661Z,100057.69
2023-06-29T05:21:52.037Z,100053.75
2023-06-29T05:25:16.705Z,100056.22
2023-06-29T05:28:39.435Z,100045.56
2023-06-29T05:32:02.236Z,100059.25
2023-06-29T05:35:24.966Z,100049.41
2023-06-29T05:38:48.132Z,100047.53
2023-06-29T05:42:12.316Z,100045.22
2023-06-29T05:45:34.898Z,100048.22
2023-06-29T05:48:57.631Z,100046.53
2023-06-29T05:52:20.678Z,100044.34
2023-06-29T05:55:43.651Z,100045.97
2023-06-29T05:59:08.042Z,100047.78
2023-06-29T06:02:31.305Z,100036.59
2023-06-29T06:05:54.667Z,100048.91
2023-06-29T06:09:19.157Z,100038.94
2023-06-29T06:12:42.348Z,100032.63
2023-06-29T06:16:07.220Z,100042.78
2023-06-29T06:19:29.984Z,100042.75
2023-06-29T06:22:52.944Z,100050.44
2023-06-29T06:26:15.917Z,100040.41
2023-06-29T06:29:38.968Z,100041.72
2023-06-29T06:33:03.575Z,100042.72
2023-06-29T06:36:27.433Z,100039.38
2023-06-29T06:39:50.094Z,100041.50
2023-06-29T06:43:12.836Z,100035.78
2023-06-29T06:46:35.735Z,100032.59
2023-06-29T06:50:00.293Z,100036.78
2023-06-29T06:53:23.455Z,100032.28
2023-06-29T06:56:46.319Z,100030.97
2023-06-29T07:00:14.495Z,100039.88
2023-06-29T07:03:36.951Z,100050.50
2023-06-29T07:07:01.130Z,100037.13
2023-06-29T07:10:23.883Z,100040.06
2023-06-29T07:13:47.048Z,100040.41
2023-06-29T07:17:10.236Z,100025.03
2023-06-29T07:27:26.045Z,100028.72
2023-06-29T07:30:48.737Z,100042.09
2023-06-29T07:34:11.676Z,100036.66
2023-06-29T07:37:35.533Z,100023.19
2023-06-29T07:41:00.029Z,100021.94
2023-06-29T07:44:22.899Z,100022.09
2023-06-29T07:47:45.833Z,100025.59
2023-06-29T07:51:08.403Z,100022.03
2023-06-29T07:54:31.047Z,100013.53
2023-06-29T08:01:21.194Z,100018.53
2023-06-29T08:08:10.372Z,100034.59
2023-06-29T08:11:33.420Z,100023.78
2023-06-29T08:14:57.804Z,100015.03
2023-06-29T08:18:20.460Z,100027.78
2023-06-29T08:21:43.422Z,100017.59
2023-06-29T08:25:06.481Z,100016.97
2023-06-29T08:28:29.453Z,100019.19
2023-06-29T08:31:53.951Z,100020.13
2023-06-29T08:35:17.224Z,100023.50
2023-06-29T08:38:40.366Z,100011.53
2023-06-29T08:42:06.859Z,100011.81
2023-06-29T08:45:30.884Z,100000.41
2023-06-29T08:48:55.585Z,99999.75
2023-06-29T08:52:20.097Z,100005.84
2023-06-29T08:55:44.989Z,100012.69
2023-06-29T08:59:08.558Z,100004.94
2023-06-29T09:02:31.969Z,100005.03
2023-06-29T09:05:57.443Z,99997.94
2023-06-29T09:09:20.618Z,100001.50
2023-06-29T09:12:44.485Z,100000.16
2023-06-29T09:16:08.319Z,99988.31
2023-06-29T09:19:32.247Z,99996.09
2023-06-29T09:22:56.948Z,99983.00
2023-06-29T09:26:20.528Z,99985.53
2023-06-29T09:29:51.992Z,99984.06
2023-06-29T09:33:17.195Z,99975.41
2023-06-29T09:36:39.923Z,99981.38
2023-06-29T09:40:07.405Z,99974.38
2023-06-29T09:43:31.632Z,99980.63
2023-06-29T09:50:22.591Z,99958.34
2023-06-29T09:53:48.471Z,99967.06
2023-06-29T09:57:13.813Z,99957.16
2023-06-29T10:00:37.477Z,99959.41
2023-06-29T10:04:00.522Z,99953.47
2023-06-29T10:07:24.314Z,99943.75
2023-06-29T10:10:48.274Z,99947.97
2023-06-29T10:14:16.243Z,99943.50
2023-06-29T10:17:47.339Z,99947.63
2023-06-29T10:21:10.863Z,99948.47
2023-06-29T10:24:37.307Z,99948.47
2023-06-29T10:28:00.270Z,99943.78
2023-06-29T10:31:34.313Z,99942.53
2023-06-29T10:35:07.280Z,99936.78
2023-06-29T10:38:34.637Z,99930.41
2023-06-29T10:41:57.388Z,99930.28
2023-06-29T10:45:36.426Z,99930.31
2023-06-29T10:49:04.611Z,99925.38
2023-06-29T10:52:27.210Z,99928.25
2023-06-29T10:55:54.721Z,99920.00
2023-06-29T10:59:19.113Z,99918.19
2023-06-29T11:02:42.243Z,99908.53
2023-06-29T11:06:08.413Z,99914.97
2023-06-29T11:09:32.098Z,99910.50
2023-06-29T11:12:56.243Z,99906.75
2023-06-29T11:16:20.317Z,99903.44
2023-06-29T11:19:47.215Z,99905.09
2023-06-29T11:23:11.415Z,99896.41
2023-06-29T11:26:34.453Z,99886.88
2023-06-29T11:29:58.020Z,99885.66
2023-06-29T11:33:33.792Z,99883.63
2023-06-29T11:37:09.610Z,99874.38
2023-06-29T11:40:39.671Z,99868.38
2023-06-29T11:44:03.467Z,99870.66
2023-06-29T11:47:33.381Z,99864.28
2023-06-29T11:51:02.092Z,99860.94
2023-06-29T11:54:25.427Z,99863.63
2023-06-29T11:57:55.257Z,99857.22
2023-06-29T12:01:20.406Z,99855.63
2023-06-29T12:04:57.069Z,99847.16
2023-06-29T12:08:22.016Z,99852.94
2023-06-29T12:11:45.206Z,99855.19
2023-06-29T12:15:18.115Z,99848.38
2023-06-29T12:18:40.784Z,99844.00
2023-06-29T12:22:04.296Z,99838.88
2023-06-29T12:25:26.981Z,99834.94
2023-06-29T12:28:49.834Z,99827.28
2023-06-29T12:32:14.319Z,99837.63
2023-06-29T12:35:37.512Z,99825.19
2023-06-29T12:38:59.931Z,99816.94
2023-06-29T12:42:22.784Z,99817.16
2023-06-29T12:45:45.752Z,99811.16
2023-06-29T12:49:09.725Z,99807.66
2023-06-29T12:52:33.095Z,99811.97
2023-06-29T12:55:56.265Z,99815.09
2023-06-29T12:59:19.117Z,99803.84
2023-06-29T13:02:42.295Z,99800.50
2023-06-29T13:06:06.577Z,99803.13
2023-06-29T13:09:29.429Z,99801.88
2023-06-29T13:12:51.987Z,99812.19
2023-06-29T13:16:15.140Z,99805.72
2023-06-29T13:19:37.799Z,99801.91
2023-06-29T13:23:02.498Z,99813.56
2023-06-29T13:26:25.043Z,99804.16
2023-06-29T13:29:48.109Z,99805.78
2023-06-29T13:33:10.650Z,99806.06
2023-06-29T13:36:33.505Z,99813.72
2023-06-29T13:39:57.797Z,99803.63
2023-06-29T13:43:20.748Z,99798.97
2023-06-29T13:46:44.184Z,99804.50
2023-06-29T13:50:07.802Z,99806.72
2023-06-29T13:53:30.755Z,99809.41
2023-06-29T13:56:55.448Z,99814.81
2023-06-29T14:00:19.231Z,99801.13
2023-06-29T14:03:42.375Z,99788.31
2023-06-29T14:07:05.573Z,99796.13
2023-06-29T14:10:29.136Z,99803.75
2023-06-29T14:13:53.946Z,99789.97
2023-06-29T14:17:22.651Z,99793.91
2023-06-29T14:20:45.885Z,99777.41
2023-06-29T14:24:08.437Z,99797.94
2023-06-29T14:27:31.291Z,99791.91
2023-06-29T14:30:55.503Z,99795.00
2023-06-29T14:34:18.627Z,99805.56
2023-06-29T14:37:41.506Z,99793.28
2023-06-29T14:41:05.797Z,99800.22
2023-06-29T14:44:28.620Z,99802.31
2023-06-29T14:47:52.634Z,99804.84
2023-06-29T14:51:15.495Z,99800.78
2023-06-29T14:54:38.839Z,99797.34
2023-06-29T14:58:02.074Z,99807.38
2023-06-29T15:01:25.021Z,99799.53
2023-06-29T15:04:49.674Z,99795.63
2023-06-29T15:08:12.431Z,99796.38
2023-06-29T15:11:35.289Z,99815.34
2023-06-29T15:14:58.242Z,99803.25
2023-06-29T15:18:21.514Z,99817.81
2023-06-29T15:21:45.498Z,99814.59
2023-06-29T15:25:09.928Z,99814.00
2023-06-29T15:28:33.043Z,99810.88
2023-06-29T15:31:56.051Z,99819.03
2023-06-29T15:35:19.193Z,99813.50
2023-06-29T15:38:43.968Z,99821.31
2023-06-29T15:42:07.450Z,99824.38
2023-06-29T15:45:30.808Z,99824.38
2023-06-29T15:48:54.099Z,99823.63
2023-06-29T15:52:17.327Z,99827.38
2023-06-29T15:55:41.763Z,99815.09
2023-06-29T15:59:04.797Z,99817.06
2023-06-29T16:02:29.165Z,99809.78
2023-06-29T16:05:52.152Z,99814.88
2023-06-29T16:09:15.630Z,99801.91
2023-06-29T16:12:40.018Z,99804.16
2023-06-29T16:16:02.880Z,99794.97
2023-06-29T16:19:26.047Z,99791.91
2023-06-29T16:22:49.338Z,99791.03
2023-06-29T16:26:13.170Z,99786.53
2023-06-29T16:29:39.006Z,99792.63
2023-06-29T16:33:02.122Z,99792.34
2023-06-29T16:36:24.845Z,99799.97
2023-06-29T16:39:47.765Z,99804.94
2023-06-29T16:43:10.325Z,99801.63
2023-06-29T16:46:35.399Z,99800.38
2023-06-29T16:49:58.183Z,99799.78
2023-06-29T16:53:20.834Z,99799.97
2023-06-29T16:56:43.485Z,99795.16
2023-06-29T17:00:08.328Z,99793.28
2023-06-29T17:03:32.936Z,99801.56
2023-06-29T17:06:55.770Z,99799.06
2023-06-29T17:10:18.489Z,99786.41
2023-06-29T17:13:42.344Z,99805.88
2023-06-29T17:17:05.399Z,99808.94
2023-06-29T17:20:30.032Z,99809.31
2023-06-29T17:23:54.371Z,99812.59
2023-06-29T17:27:17.481Z,99813.91
2023-06-29T17:30:40.149Z,99815.72
2023-06-29T17:34:03.293Z,99816.19
2023-06-29T17:37:27.488Z,99801.31
2023-06-29T17:40:50.547Z,99804.41
2023-06-29T17:44:13.387Z,99807.28
2023-06-29T17:47:36.599Z,99803.88
2023-06-29T17:50:59.636Z,99803.56
2023-06-29T17:54:24.344Z,99796.88
2023-06-29T17:57:47.691Z,99794.81
2023-06-29T18:01:10.760Z,99800.41
2023-06-29T18:04:33.973Z,99795.03
2023-06-29T18:07:57.592Z,99800.41
2023-06-29T18:11:21.714Z,99799.78
2023-06-29T18:14:44.742Z,99803.94
2023-06-29T18:18:08.177Z,99807.63
2023-06-29T18:21:31.180Z,99805.78
2023-06-29T18:24:55.675Z,99800.41
2023-06-29T18:28:20.161Z,99800.94
2023-06-29T18:31:42.710Z,99806.41
2023-06-29T18:35:06.511Z,99808.94
2023-06-29T18:38:29.334Z,99819.22
2023-06-29T18:41:52.404Z,99815.69
2023-06-29T18:45:16.328Z,99818.97
2023-06-29T18:48:38.864Z,99807.00
2023-06-29T18:52:00.807Z,99820.78
2023-06-29T18:55:22.862Z,99827.09
2023-06-29T18:58:44.823Z,99829.56
2023-06-29T19:02:08.484Z,99833.25
2023-06-29T19:05:30.291Z,99836.72
2023-06-29T19:08:52.412Z,99828.03
2023-06-29T19:12:14.120Z,99834.47
2023-06-29T19:15:36.121Z,99831.16
2023-06-29T19:23:44.148Z,99831.75
2023-06-29T19:27:07.205Z,99825.53
2023-06-29T19:30:29.258Z,99822.97
2023-06-29T19:33:51.007Z,99829.91
2023-06-29T19:37:12.711Z,99827.13
2023-06-29T19:40:35.930Z,99830.19
2023-06-29T19:43:58.241Z,99835.75
2023-06-29T19:47:20.107Z,99827.50
2023-06-29T19:50:41.896Z,99829.22
2023-06-29T19:54:03.621Z,99827.91
2023-06-29T19:57:26.955Z,99834.72
2023-06-29T20:00:48.858Z,99832.78
2023-06-29T20:04:10.875Z,99833.78
2023-06-29T20:07:32.940Z,99832.28
2023-06-29T20:10:55.263Z,99830.13
2023-06-29T20:14:18.643Z,99837.94
2023-06-29T20:17:40.989Z,99836.91
2023-06-29T20:21:02.952Z,99840.38
2023-06-29T20:24:25.205Z,99841.53
2023-06-29T20:27:47.354Z,99836.34
2023-06-29T20:31:10.869Z,99836.00
2023-06-29T20:34:32.836Z,99836.28
2023-06-29T20:37:55.558Z,99838.25
2023-06-29T20:41:17.634Z,99822.22
2023-06-29T20:44:39.521Z,99832.34
2023-06-29T20:48:02.970Z,99817.78
2023-06-29T20:51:24.951Z,99830.75
2023-06-29T20:54:46.728Z,99829.03
2023-06-29T20:58:10.668Z,99832.66
2023-06-29T21:01:32.745Z,99828.94
2023-06-29T21:04:57.386Z,99831.25
2023-06-29T21:08:19.338Z,99832.84
2023-06-29T21:11:42.354Z,99835.47
2023-06-29T21:15:05.027Z,99824.59
2023-06-29T21:18:28.194Z,99832.22
2023-06-29T21:21:52.195Z,99833.97
2023-06-29T21:25:14.702Z,99836.25
2023-06-29T21:28:37.325Z,99818.41
2023-06-29T21:32:03.929Z,99825.81
2023-06-29T21:35:26.640Z,99817.50
2023-06-29T21:38:51.291Z,99818.13
2023-06-29T21:42:13.503Z,99817.03
2023-06-29T21:45:35.292Z,99822.94
2023-06-29T21:48:57.382Z,99822.91
2023-06-29T21:52:19.222Z,99826.59
2023-06-29T21:55:43.123Z,99824.97
2023-06-29T21:59:04.899Z,99810.25
2023-06-29T22:02:26.813Z,99824.50
2023-06-29T22:05:48.818Z,99820.94
2023-06-29T22:09:10.587Z,99820.56
2023-06-29T22:12:39.718Z,99822.56
2023-06-29T22:16:01.314Z,99832.69
2023-06-29T22:19:24.895Z,99825.72
2023-06-29T22:22:46.903Z,99803.63
2023-06-29T22:26:08.594Z,99821.75
2023-06-29T22:29:34.738Z,99820.66
2023-06-29T22:32:56.637Z,99817.06
2023-06-29T22:36:19.245Z,99811.75
2023-06-29T22:39:41.116Z,99814.97
2023-06-29T22:43:02.944Z,99813.16
2023-06-29T22:46:27.808Z,99809.00
2023-06-29T22:49:52.054Z,99807.03
2023-06-29T22:53:13.842Z,99808.00
2023-06-29T22:56:35.486Z,99806.91
2023-06-29T22:59:58.332Z,99806.63
2023-06-29T23:03:22.176Z,99802.75
2023-06-29T23:06:47.684Z,99815.13
2023-06-29T23:10:10.151Z,99807.19
2023-06-29T23:13:41.583Z,99801.75
2023-06-29T23:17:04.178Z,99809.56
2023-06-29T23:20:27.795Z,99802.03
2023-06-29T23:23:49.606Z,99801.47
2023-06-29T23:27:11.311Z,99807.19
2023-06-29T23:30:33.897Z,99805.50
2023-06-29T23:33:55.995Z,99802.16
2023-06-29T23:37:19.346Z,99813.59
2023-06-29T23:40:42.008Z,99791.72
2023-06-29T23:44:06.612Z,99815.09
2023-06-29T23:47:30.537Z,99815.63
2023-06-29T23:50:52.293Z,99815.19
2023-06-29T23:54:16.607Z,99816.56
2023-06-29T23:57:39.188Z,99807.50
